createdAt,value
2019-02-15T00:00:54.183Z,103137.88
2019-02-15T00:03:23.968Z,103139.20
2019-02-15T00:05:53.714Z,103142.68
2019-02-15T00:08:23.419Z,103143.48
2019-02-15T00:10:53.124Z,103147.98
2019-02-15T00:13:22.787Z,103144.70
2019-02-15T00:15:52.632Z,103140.53
2019-02-15T00:18:26.574Z,103144.50
2019-02-15T00:21:00.608Z,103143.78
2019-02-15T00:23:30.264Z,103138.98
2019-02-15T00:26:00.015Z,103143.45
2019-02-15T00:28:29.713Z,103134.39
2019-02-15T00:30:59.384Z,103134.69
2019-02-15T00:33:29.026Z,103122.67
2019-02-15T00:35:58.697Z,103127.57
2019-02-15T00:38:28.382Z,103129.52
2019-02-15T00:40:58.010Z,103125.05
2019-02-15T00:43:27.727Z,103130.44
2019-02-15T00:45:59.011Z,103135.73
2019-02-15T00:48:29.375Z,103126.66
2019-02-15T00:51:10.551Z,103133.78
2019-02-15T00:53:41.852Z,103134.41
2019-02-15T00:56:24.798Z,103130.84
2019-02-15T00:58:54.320Z,103128.06
2019-02-15T01:01:34.522Z,103130.42
2019-02-15T01:04:03.955Z,103128.06
2019-02-15T01:06:43.752Z,103123.80
2019-02-15T01:09:28.108Z,103125.20
2019-02-15T01:12:01.816Z,103120.02
2019-02-15T01:14:31.587Z,103120.72
2019-02-15T01:17:01.341Z,103118.07
2019-02-15T01:19:31.027Z,103119.89
2019-02-15T01:22:00.746Z,103117.15
2019-02-15T01:24:30.423Z,103114.87
2019-02-15T01:27:01.739Z,103108.09
2019-02-15T01:29:31.135Z,103111.94
2019-02-15T01:32:18.869Z,103114.78
2019-02-15T01:34:53.034Z,103109.19
2019-02-15T01:37:24.428Z,103109.28
2019-02-15T01:40:01.555Z,103105.72
2019-02-15T01:42:31.059Z,103101.75
2019-02-15T01:45:06.207Z,103101.63
2019-02-15T01:47:36.251Z,103099.50
2019-02-15T01:50:08.396Z,103094.28
2019-02-15T01:52:38.129Z,103092.34
2019-02-15T01:55:08.320Z,103100.98
2019-02-15T01:57:37.976Z,103095.09
2019-02-15T02:00:13.076Z,103086.33
2019-02-15T02:02:42.850Z,103087.16
2019-02-15T02:05:12.644Z,103078.59
2019-02-15T02:07:42.380Z,103078.59
2019-02-15T02:10:12.194Z,103079.78
2019-02-15T02:12:42.084Z,103069.73
2019-02-15T02:15:12.396Z,103073.37
2019-02-15T02:17:42.353Z,103067.98
2019-02-15T02:20:12.203Z,103071.13
2019-02-15T02:22:41.906Z,103065.92
2019-02-15T02:25:11.631Z,103066.13
2019-02-15T02:27:41.324Z,103061.95
2019-02-15T02:30:11.130Z,103062.48
2019-02-15T02:32:40.846Z,103057.98
2019-02-15T02:35:10.692Z,103057.82
2019-02-15T02:37:40.373Z,103051.50
2019-02-15T02:40:10.462Z,103060.47
2019-02-15T02:42:40.186Z,103055.67
2019-02-15T02:45:10.085Z,103052.82
2019-02-15T02:47:39.751Z,103051.70
2019-02-15T02:50:09.650Z,103046.30
2019-02-15T02:52:39.305Z,103043.65
2019-02-15T02:55:08.981Z,103045.50
2019-02-15T02:57:38.682Z,103043.77
2019-02-15T03:00:08.817Z,103043.57
2019-02-15T03:02:38.503Z,103039.30
2019-02-15T03:05:08.462Z,103043.77
2019-02-15T03:07:38.103Z,103043.16
2019-02-15T03:10:08.636Z,103041.73
2019-02-15T03:12:38.329Z,103043.06
2019-02-15T03:15:09.102Z,103038.27
2019-02-15T03:17:38.775Z,103043.36
2019-02-15T03:20:09.136Z,103039.29
2019-02-15T03:22:38.851Z,103048.55
2019-02-15T03:25:08.688Z,103041.61
2019-02-15T03:27:38.349Z,103042.64
2019-02-15T03:30:10.233Z,103038.34
2019-02-15T03:32:39.931Z,103035.08
2019-02-15T03:35:10.821Z,103037.13
2019-02-15T03:37:54.369Z,103034.16
2019-02-15T03:40:25.704Z,103033.36
2019-02-15T03:42:55.526Z,103034.34
2019-02-15T03:45:25.314Z,103034.21
2019-02-15T03:47:55.016Z,103032.80
2019-02-15T03:50:24.703Z,103030.84
2019-02-15T03:52:54.435Z,103025.73
2019-02-15T03:55:24.146Z,103024.28
2019-02-15T03:57:53.867Z,103023.27
2019-02-15T04:00:23.540Z,103023.34
2019-02-15T04:02:53.711Z,103032.39
2019-02-15T04:05:23.401Z,103019.45
2019-02-15T04:07:53.155Z,103025.56
2019-02-15T04:10:22.815Z,103020.67
2019-02-15T04:12:52.610Z,103019.55
2019-02-15T04:15:22.344Z,103017.88
2019-02-15T04:17:52.036Z,103012.98
2019-02-15T04:20:24.778Z,103022.93
2019-02-15T04:22:54.550Z,103016.59
2019-02-15T04:25:24.196Z,103015.44
2019-02-15T04:27:53.886Z,103025.58
2019-02-15T04:30:23.580Z,103013.95
2019-02-15T04:32:53.331Z,103015.27
2019-02-15T04:35:22.994Z,103015.03
2019-02-15T04:37:52.650Z,103018.43
2019-02-15T04:40:22.330Z,103020.19
2019-02-15T04:42:51.964Z,103013.11
2019-02-15T04:45:21.625Z,103021.09
2019-02-15T04:47:51.316Z,103018.16
2019-02-15T04:50:21.057Z,103015.52
2019-02-15T04:52:51.293Z,103017.03
2019-02-15T04:55:20.933Z,103023.63
2019-02-15T04:57:50.600Z,103025.84
2019-02-15T05:00:20.267Z,103026.83
2019-02-15T05:02:50.034Z,103025.95
2019-02-15T05:05:19.672Z,103029.67
2019-02-15T05:07:49.347Z,103038.88
2019-02-15T05:10:19.019Z,103026.05
2019-02-15T05:12:48.772Z,103030.56
2019-02-15T05:15:18.403Z,103024.34
2019-02-15T05:17:48.092Z,103035.35
2019-02-15T05:20:17.767Z,103031.28
2019-02-15T05:22:47.530Z,103038.77
2019-02-15T05:25:17.183Z,103037.14
2019-02-15T05:27:46.825Z,103033.68
2019-02-15T05:30:16.527Z,103029.58
2019-02-15T05:32:46.215Z,103034.50
2019-02-15T05:35:15.889Z,103035.83
2019-02-15T05:37:45.562Z,103034.17
2019-02-15T05:40:19.503Z,103027.33
2019-02-15T05:42:49.132Z,103028.16
2019-02-15T05:45:18.901Z,103029.14
2019-02-15T05:47:48.578Z,103030.98
2019-02-15T05:50:18.287Z,103027.33
2019-02-15T05:52:55.807Z,103028.40
2019-02-15T05:55:25.521Z,103025.81
2019-02-15T05:58:10.545Z,103032.30
2019-02-15T06:00:40.326Z,103034.89
2019-02-15T06:03:10.088Z,103027.46
2019-02-15T06:05:39.758Z,103029.52
2019-02-15T06:08:09.415Z,103029.59
2019-02-15T06:10:39.111Z,103029.84
2019-02-15T06:13:08.771Z,103022.61
2019-02-15T06:15:38.431Z,103023.61
2019-02-15T06:18:08.093Z,103020.03
2019-02-15T06:20:37.731Z,103019.39
2019-02-15T06:23:07.435Z,103020.34
2019-02-15T06:25:37.144Z,103017.39
2019-02-15T06:28:06.826Z,103021.66
2019-02-15T06:30:36.468Z,103020.67
2019-02-15T06:33:06.311Z,103022.29
2019-02-15T06:35:35.964Z,103023.73
2019-02-15T06:38:05.791Z,103019.82
2019-02-15T06:40:35.488Z,103022.88
2019-02-15T06:43:05.181Z,103027.41
2019-02-15T06:45:36.811Z,103023.90
2019-02-15T06:48:06.465Z,103025.14
2019-02-15T06:50:36.128Z,103024.27
2019-02-15T06:53:05.817Z,103032.75
2019-02-15T06:55:35.539Z,103034.19
2019-02-15T06:58:05.204Z,103033.25
2019-02-15T07:00:48.475Z,103032.61
2019-02-15T07:03:28.583Z,103034.56
2019-02-15T07:05:58.339Z,103041.05
2019-02-15T07:08:28.012Z,103043.87
2019-02-15T07:10:57.781Z,103043.14
2019-02-15T07:13:27.492Z,103041.82
2019-02-15T07:15:57.180Z,103043.44
2019-02-15T07:18:26.914Z,103044.77
2019-02-15T07:20:56.615Z,103040.88
2019-02-15T07:23:26.333Z,103048.78
2019-02-15T07:25:56.077Z,103043.91
2019-02-15T07:28:25.745Z,103045.38
2019-02-15T07:30:55.430Z,103048.38
2019-02-15T07:33:25.109Z,103046.81
2019-02-15T07:35:55.970Z,103049.21
2019-02-15T07:38:25.609Z,103049.46
2019-02-15T07:40:55.386Z,103048.69
2019-02-15T07:43:25.029Z,103052.70
2019-02-15T07:45:54.690Z,103049.52
2019-02-15T07:48:24.379Z,103049.19
2019-02-15T07:50:54.541Z,103046.02
2019-02-15T07:53:24.280Z,103042.03
2019-02-15T07:55:53.957Z,103044.85
2019-02-15T07:58:23.763Z,103042.58
2019-02-15T08:00:53.599Z,103048.67
2019-02-15T08:03:23.279Z,103044.05
2019-02-15T08:05:53.087Z,103048.47
2019-02-15T08:08:22.795Z,103041.62
2019-02-15T08:10:52.542Z,103038.77
2019-02-15T08:14:42.557Z,103031.73
2019-02-15T08:17:48.031Z,103031.61
2019-02-15T08:20:17.781Z,103026.73
2019-02-15T08:22:47.438Z,103025.72
2019-02-15T08:25:17.201Z,103022.95
2019-02-15T08:27:47.070Z,103021.79
2019-02-15T08:30:16.981Z,103021.62
2019-02-15T08:32:46.687Z,103020.16
2019-02-15T08:35:16.462Z,103014.39
2019-02-15T08:37:46.233Z,103013.98
2019-02-15T08:40:15.934Z,103006.41
2019-02-15T08:42:45.698Z,103002.84
2019-02-15T08:47:50.992Z,102999.86
2019-02-15T08:50:20.797Z,103007.52
2019-02-15T08:52:50.474Z,103000.09
2019-02-15T08:55:20.180Z,102994.97
2019-02-15T08:57:49.876Z,103004.08
2019-02-15T09:00:19.540Z,102992.28
2019-02-15T09:02:49.635Z,102994.81
2019-02-15T09:05:19.878Z,102991.70
2019-02-15T09:07:49.592Z,102992.20
2019-02-15T09:10:19.316Z,102988.99
2019-02-15T09:12:49.491Z,102981.88
2019-02-15T09:15:22.744Z,102981.09
2019-02-15T09:17:54.412Z,102976.48
2019-02-15T09:20:24.248Z,102973.19
2019-02-15T09:22:53.913Z,102979.28
2019-02-15T09:25:24.074Z,102969.21
2019-02-15T09:28:11.554Z,102976.48
2019-02-15T09:30:41.526Z,102973.94
2019-02-15T09:33:11.471Z,102970.52
2019-02-15T09:35:41.317Z,102971.58
2019-02-15T09:38:11.133Z,102970.00
2019-02-15T09:40:41.145Z,102970.86
2019-02-15T09:43:10.927Z,102969.03
2019-02-15T09:45:49.191Z,102961.72
2019-02-15T09:48:19.033Z,102962.78
2019-02-15T09:50:48.724Z,102963.91
2019-02-15T09:53:18.465Z,102963.67
2019-02-15T09:55:48.199Z,102962.58
2019-02-15T09:58:18.024Z,102962.34
2019-02-15T10:00:47.755Z,102964.97
2019-02-15T10:03:17.453Z,102955.11
2019-02-15T10:05:47.211Z,102956.73
2019-02-15T10:08:16.998Z,102953.98
2019-02-15T10:10:46.745Z,102960.05
2019-02-15T10:13:16.618Z,102955.23
2019-02-15T10:15:46.351Z,102953.19
2019-02-15T10:18:16.017Z,102951.83
2019-02-15T10:20:45.793Z,102950.64
2019-02-15T10:23:15.450Z,102950.49
2019-02-15T10:25:45.337Z,102952.48
2019-02-15T10:28:15.042Z,102946.84
2019-02-15T10:30:44.719Z,102947.73
2019-02-15T10:33:14.522Z,102950.93
2019-02-15T10:35:44.223Z,102950.93
2019-02-15T10:38:13.951Z,102949.44
2019-02-15T10:40:43.752Z,102949.40
2019-02-15T10:43:13.445Z,102948.06
2019-02-15T10:45:43.198Z,102951.17
2019-02-15T10:48:13.929Z,102949.74
2019-02-15T10:50:44.823Z,102941.70
2019-02-15T10:53:14.611Z,102942.95
2019-02-15T10:55:44.258Z,102936.59
2019-02-15T10:58:14.036Z,102931.48
2019-02-15T11:00:43.934Z,102932.11
2019-02-15T11:03:14.855Z,102933.03
2019-02-15T11:05:44.819Z,102926.40
2019-02-15T11:08:14.517Z,102929.34
2019-02-15T11:10:44.372Z,102924.87
2019-02-15T11:13:14.067Z,102925.44
2019-02-15T11:15:43.873Z,102923.22
2019-02-15T11:18:13.729Z,102922.02
2019-02-15T11:20:43.532Z,102915.43
2019-02-15T11:23:13.314Z,102909.84
2019-02-15T11:25:43.005Z,102915.23
2019-02-15T11:28:12.708Z,102912.10
2019-02-15T11:30:42.568Z,102905.67
2019-02-15T11:33:12.316Z,102906.68
2019-02-15T11:35:42.020Z,102904.45
2019-02-15T11:38:11.765Z,102907.19
2019-02-15T11:40:41.647Z,102901.88
2019-02-15T11:43:11.531Z,102907.95
2019-02-15T11:45:41.264Z,102896.55
2019-02-15T11:48:10.986Z,102895.00
2019-02-15T11:50:40.877Z,102893.36
2019-02-15T11:53:10.625Z,102887.98
2019-02-15T11:55:40.355Z,102881.05
2019-02-15T11:58:10.130Z,102882.58
2019-02-15T12:00:39.940Z,102879.80
2019-02-15T12:03:09.681Z,102876.25
2019-02-15T12:05:39.344Z,102872.66
2019-02-15T12:08:09.201Z,102864.88
2019-02-15T12:10:41.481Z,102862.45
2019-02-15T12:13:10.456Z,102856.83
2019-02-15T12:15:40.145Z,102858.29
2019-02-15T12:18:09.906Z,102849.77
2019-02-15T12:20:39.684Z,102844.06
2019-02-15T12:23:09.479Z,102848.16
2019-02-15T12:25:39.202Z,102843.13
2019-02-15T12:28:08.966Z,102839.30
2019-02-15T12:30:38.820Z,102831.84
2019-02-15T12:33:08.674Z,102825.17
2019-02-15T12:35:38.403Z,102822.72
2019-02-15T12:38:08.336Z,102819.80
2019-02-15T12:40:38.052Z,102814.15
2019-02-15T12:43:07.826Z,102811.47
2019-02-15T12:45:37.677Z,102810.16
2019-02-15T12:48:07.511Z,102813.69
2019-02-15T12:50:37.371Z,102805.38
2019-02-15T12:53:07.194Z,102799.22
2019-02-15T12:55:36.948Z,102797.94
2019-02-15T12:58:06.743Z,102788.86
2019-02-15T13:00:36.548Z,102787.29
2019-02-15T13:03:06.555Z,102797.58
2019-02-15T13:05:36.256Z,102787.16
2019-02-15T13:08:06.055Z,102784.80
2019-02-15T13:10:37.471Z,102775.95
2019-02-15T13:13:07.241Z,102771.66
2019-02-15T13:15:37.002Z,102776.25
2019-02-15T13:18:06.735Z,102768.17
2019-02-15T13:20:36.523Z,102763.62
2019-02-15T13:23:06.768Z,102754.20
2019-02-15T13:25:37.229Z,102754.73
2019-02-15T13:28:07.037Z,102755.22
2019-02-15T13:30:37.197Z,102746.86
2019-02-15T13:33:06.903Z,102736.58
2019-02-15T13:35:36.917Z,102730.32
2019-02-15T13:38:06.765Z,102727.86
2019-02-15T13:40:36.548Z,102725.61
2019-02-15T13:43:06.366Z,102715.83
2019-02-15T13:45:36.093Z,102718.70
2019-02-15T13:48:05.868Z,102713.52
2019-02-15T13:50:35.705Z,102716.91
2019-02-15T13:53:05.456Z,102711.75
2019-02-15T13:55:35.318Z,102705.22
2019-02-15T13:58:05.143Z,102695.44
2019-02-15T14:00:34.922Z,102693.75
2019-02-15T14:03:04.667Z,102692.93
2019-02-15T14:05:34.787Z,102687.78
2019-02-15T14:08:04.589Z,102694.22
2019-02-15T14:10:35.552Z,102690.94
2019-02-15T14:13:05.276Z,102688.75
2019-02-15T14:15:35.174Z,102672.52
2019-02-15T14:18:05.049Z,102678.44
2019-02-15T14:20:34.988Z,102676.09
2019-02-15T14:23:04.711Z,102670.73
2019-02-15T14:25:34.487Z,102669.95
2019-02-15T14:28:04.148Z,102667.66
2019-02-15T14:30:34.257Z,102668.29
2019-02-15T14:33:05.394Z,102673.98
2019-02-15T14:35:35.309Z,102663.28
2019-02-15T14:38:05.264Z,102666.69
2019-02-15T14:40:35.224Z,102661.96
2019-02-15T14:43:05.140Z,102660.37
2019-02-15T14:45:35.129Z,102661.79
2019-02-15T14:48:05.053Z,102659.63
2019-02-15T14:50:34.800Z,102654.60
2019-02-15T14:53:04.610Z,102654.17
2019-02-15T14:55:34.259Z,102652.41
2019-02-15T14:58:04.699Z,102653.55
2019-02-15T15:00:34.581Z,102643.61
2019-02-15T15:03:04.295Z,102639.13
2019-02-15T15:05:34.096Z,102641.56
2019-02-15T15:08:03.793Z,102634.83
2019-02-15T15:10:33.440Z,102632.19
2019-02-15T15:13:03.505Z,102628.42
2019-02-15T15:15:33.685Z,102621.97
2019-02-15T15:18:12.753Z,102625.48
2019-02-15T15:20:35.174Z,102621.44
2019-02-15T15:23:04.973Z,102621.73
2019-02-15T15:25:34.673Z,102613.13
2019-02-15T15:28:04.548Z,102607.50
2019-02-15T15:30:34.392Z,102613.44
2019-02-15T15:33:05.390Z,102605.66
2019-02-15T15:35:35.238Z,102609.41
2019-02-15T15:38:04.913Z,102606.72
2019-02-15T15:40:34.822Z,102599.22
2019-02-15T15:43:04.705Z,102598.17
2019-02-15T15:45:34.432Z,102601.66
2019-02-15T15:48:04.282Z,102593.58
2019-02-15T15:50:34.239Z,102592.48
2019-02-15T15:53:03.937Z,102587.65
2019-02-15T15:55:33.774Z,102583.06
2019-02-15T15:58:03.660Z,102584.14
2019-02-15T16:00:38.910Z,102585.45
2019-02-15T16:03:05.723Z,102582.51
2019-02-15T16:05:35.408Z,102577.12
2019-02-15T16:08:05.196Z,102574.70
2019-02-15T16:10:35.046Z,102573.39
2019-02-15T16:13:04.820Z,102567.73
2019-02-15T16:15:34.561Z,102566.10
2019-02-15T16:18:04.430Z,102565.28
2019-02-15T16:20:34.212Z,102567.39
2019-02-15T16:23:03.914Z,102559.34
2019-02-15T16:25:33.631Z,102560.67
2019-02-15T16:28:03.433Z,102557.16
2019-02-15T16:30:33.223Z,102562.52
2019-02-15T16:33:03.125Z,102557.70
2019-02-15T16:35:32.892Z,102563.59
2019-02-15T16:38:02.576Z,102561.44
2019-02-15T16:40:32.526Z,102563.34
2019-02-15T16:43:02.341Z,102560.36
2019-02-15T16:45:32.810Z,102557.91
2019-02-15T16:48:02.931Z,102564.88
2019-02-15T16:50:32.955Z,102566.53
2019-02-15T16:53:02.906Z,102567.02
2019-02-15T16:55:32.687Z,102559.24
2019-02-15T16:58:02.410Z,102555.19
2019-02-15T17:00:32.282Z,102557.78
2019-02-15T17:03:01.950Z,102551.03
2019-02-15T17:05:31.661Z,102556.39
2019-02-15T17:08:01.514Z,102554.73
2019-02-15T17:10:31.366Z,102555.49
2019-02-15T17:13:01.173Z,102562.42
2019-02-15T17:15:30.934Z,102559.67
2019-02-15T17:18:00.620Z,102561.77
2019-02-15T17:20:30.416Z,102552.63
2019-02-15T17:23:00.317Z,102553.92
2019-02-15T17:25:30.150Z,102557.08
2019-02-15T17:27:59.841Z,102552.20
2019-02-15T17:51:13.694Z,102548.37
2019-02-15T17:53:43.346Z,102548.11
2019-02-15T17:56:13.054Z,102550.71
2019-02-15T17:58:43.322Z,102543.51
2019-02-15T18:01:13.031Z,102539.46
2019-02-15T18:03:42.720Z,102539.67
2019-02-15T18:06:12.469Z,102541.73
2019-02-15T18:08:42.133Z,102541.12
2019-02-15T18:11:11.823Z,102535.25
2019-02-15T18:13:41.535Z,102539.20
2019-02-15T18:16:12.448Z,102542.60
2019-02-15T18:18:42.151Z,102536.38
2019-02-15T18:21:12.533Z,102535.59
2019-02-15T18:23:42.236Z,102533.23
2019-02-15T18:26:11.872Z,102534.53
2019-02-15T18:28:41.697Z,102530.47
2019-02-15T18:31:11.371Z,102528.82
2019-02-15T18:33:41.083Z,102533.66
2019-02-15T18:36:10.844Z,102524.86
2019-02-15T18:38:40.811Z,102524.36
2019-02-15T18:41:13.495Z,102520.86
2019-02-15T18:43:42.080Z,102518.97
2019-02-15T18:46:11.759Z,102515.16
2019-02-15T18:48:41.443Z,102513.61
2019-02-15T18:51:11.105Z,102511.15
2019-02-15T18:53:40.826Z,102508.23
2019-02-15T18:56:10.648Z,102515.16
2019-02-15T18:58:40.425Z,102512.17
2019-02-15T19:01:10.238Z,102513.05
2019-02-15T19:03:39.915Z,102514.42
2019-02-15T19:06:09.652Z,102511.91
2019-02-15T19:08:39.366Z,102508.48
2019-02-15T19:11:09.126Z,102511.34
2019-02-15T19:13:38.819Z,102510.83
2019-02-15T19:16:08.501Z,102509.18
2019-02-15T19:18:38.296Z,102507.91
2019-02-15T19:21:08.204Z,102504.98
2019-02-15T19:23:37.916Z,102506.94
2019-02-15T19:26:07.820Z,102506.12
2019-02-15T19:28:37.525Z,102502.56
2019-02-15T19:31:07.417Z,102500.96
2019-02-15T19:33:37.447Z,102499.02
2019-02-15T19:36:07.414Z,102503.02
2019-02-15T19:38:37.135Z,102500.61
2019-02-15T19:41:06.881Z,102501.67
2019-02-15T19:43:36.587Z,102499.02
2019-02-15T19:46:06.434Z,102496.91
2019-02-15T19:48:36.128Z,102497.53
2019-02-15T19:51:05.902Z,102492.14
2019-02-15T19:53:35.582Z,102502.09
2019-02-15T19:56:05.446Z,102500.25
2019-02-15T19:58:35.101Z,102498.66
2019-02-15T20:01:04.956Z,102493.79
2019-02-15T20:03:34.628Z,102487.16
2019-02-15T20:06:04.418Z,102490.86
2019-02-15T20:08:34.134Z,102489.20
2019-02-15T20:11:04.153Z,102492.44
2019-02-15T20:13:33.883Z,102482.01
2019-02-15T20:16:03.677Z,102483.36
2019-02-15T20:18:33.343Z,102486.69
2019-02-15T20:21:03.045Z,102487.77
2019-02-15T20:23:32.785Z,102483.97
2019-02-15T20:26:02.479Z,102482.36
2019-02-15T20:28:32.197Z,102483.40
2019-02-15T20:31:01.880Z,102481.53
2019-02-15T20:33:31.618Z,102485.05
2019-02-15T20:36:01.294Z,102486.63
2019-02-15T20:38:31.142Z,102484.57
2019-02-15T20:41:00.844Z,102487.14
2019-02-15T20:43:30.718Z,102487.70
2019-02-15T20:46:00.402Z,102485.55
2019-02-15T20:48:30.163Z,102482.62
2019-02-15T20:50:59.828Z,102482.97
2019-02-15T20:53:29.606Z,102479.53
2019-02-15T20:55:59.271Z,102474.38
2019-02-15T20:58:28.998Z,102478.66
2019-02-15T21:00:58.639Z,102478.33
2019-02-15T21:03:28.468Z,102476.36
2019-02-15T21:05:58.118Z,102476.42
2019-02-15T21:08:27.802Z,102469.17
2019-02-15T21:10:57.522Z,102467.13
2019-02-15T21:13:27.228Z,102471.34
2019-02-15T21:15:56.905Z,102463.58
2019-02-15T21:18:26.708Z,102470.44
2019-02-15T21:20:56.421Z,102467.95
2019-02-15T21:23:26.136Z,102478.47
2019-02-15T21:25:55.859Z,102475.15
2019-02-15T21:28:25.573Z,102474.70
2019-02-15T21:30:55.248Z,102480.22
2019-02-15T21:33:25.042Z,102480.44
2019-02-15T21:35:54.713Z,102477.75
2019-02-15T21:38:24.396Z,102471.14
2019-02-15T21:40:54.141Z,102473.49
2019-02-15T21:43:23.781Z,102479.12
2019-02-15T21:45:53.631Z,102478.31
2019-02-15T21:48:23.321Z,102480.73
2019-02-15T21:50:53.024Z,102477.86
2019-02-15T21:53:22.692Z,102481.39
2019-02-15T21:55:52.362Z,102478.45
2019-02-15T21:58:22.048Z,102471.91
2019-02-15T22:00:51.832Z,102465.81
2019-02-15T22:03:21.498Z,102467.34
2019-02-15T22:05:51.202Z,102460.27
2019-02-15T22:08:20.928Z,102457.02
2019-02-15T22:10:50.629Z,102461.44
2019-02-15T22:13:20.307Z,102460.95
2019-02-15T22:15:50.028Z,102462.77
2019-02-15T22:18:19.671Z,102462.53
2019-02-15T22:20:49.379Z,102459.34
2019-02-15T22:23:19.021Z,102460.11
2019-02-15T22:25:48.729Z,102459.81
2019-02-15T22:28:18.370Z,102457.80
2019-02-15T22:30:48.097Z,102452.72
2019-02-15T22:33:17.780Z,102459.89
2019-02-15T22:35:47.504Z,102458.05
2019-02-15T22:38:17.182Z,102457.89
2019-02-15T22:40:47.129Z,102455.25
2019-02-15T22:43:20.592Z,102450.30
2019-02-15T22:45:50.391Z,102452.06
2019-02-15T22:48:20.073Z,102460.96
2019-02-15T22:50:49.810Z,102457.75
2019-02-15T22:53:19.483Z,102454.22
2019-02-15T22:55:49.161Z,102458.39
2019-02-15T22:58:18.914Z,102456.77
2019-02-15T23:01:10.897Z,102452.17
2019-02-15T23:03:40.704Z,102449.75
2019-02-15T23:06:10.600Z,102461.98
2019-02-15T23:08:40.379Z,102458.88
2019-02-15T23:11:10.176Z,102447.57
2019-02-15T23:13:40.106Z,102442.16
2019-02-15T23:16:09.828Z,102448.18
2019-02-15T23:18:39.542Z,102449.42
2019-02-15T23:21:09.382Z,102441.98
2019-02-15T23:23:39.054Z,102437.81
2019-02-15T23:26:09.122Z,102439.08
2019-02-15T23:28:38.798Z,102440.23
2019-02-15T23:31:08.585Z,102437.23
2019-02-15T23:33:38.260Z,102437.33
2019-02-15T23:36:08.005Z,102435.17
2019-02-15T23:38:37.711Z,102438.66
2019-02-15T23:41:07.378Z,102433.33
2019-02-15T23:43:37.022Z,102437.81
2019-02-15T23:46:06.719Z,102435.59
2019-02-15T23:48:36.385Z,102439.32
2019-02-15T23:51:06.062Z,102435.33
2019-02-15T23:53:35.713Z,102433.05
2019-02-15T23:56:05.411Z,102437.63
2019-02-15T23:58:35.071Z,102434.08
